createdAt,value
2022-09-23T00:01:03.595Z,5.17
2022-09-23T00:03:31.616Z,5.11
2022-09-23T00:06:03.081Z,5.03
2022-09-23T00:08:30.193Z,5.04
2022-09-23T00:10:57.790Z,5.02
2022-09-23T00:13:24.969Z,5.13
2022-09-23T00:15:51.525Z,5.20
2022-09-23T00:18:18.129Z,5.18
2022-09-23T00:20:45.029Z,5.40
2022-09-23T00:23:11.459Z,5.37
2022-09-23T00:25:37.885Z,5.40
2022-09-23T00:28:04.472Z,5.40
2022-09-23T00:30:31.218Z,5.40
2022-09-23T00:32:57.770Z,5.39
2022-09-23T00:35:24.217Z,5.36
2022-09-23T00:37:50.740Z,5.32
2022-09-23T00:40:17.426Z,5.19
2022-09-23T00:42:49.694Z,5.27
2022-09-23T00:45:16.920Z,5.08
2022-09-23T00:48:01.396Z,5.00
2022-09-23T00:50:39.461Z,4.94
2022-09-23T00:53:09.743Z,5.01
2022-09-23T00:55:52.482Z,5.02
2022-09-23T00:58:25.109Z,5.10
2022-09-23T01:00:51.555Z,5.17
2022-09-23T01:03:19.587Z,5.25
2022-09-23T01:05:46.978Z,5.41
2022-09-23T01:08:14.857Z,5.36
2022-09-23T01:11:20.231Z,5.44
2022-09-23T01:14:17.585Z,5.52
2022-09-23T01:17:00.780Z,5.51
2022-09-23T01:19:36.180Z,5.57
2022-09-23T01:22:23.868Z,5.57
2022-09-23T01:25:25.817Z,5.65
2022-09-23T01:28:06.335Z,5.66
2022-09-23T01:30:46.054Z,5.64
2022-09-23T01:33:24.394Z,5.62
2022-09-23T01:36:08.578Z,5.64
2022-09-23T01:38:42.760Z,5.65
2022-09-23T01:41:20.658Z,5.65
2022-09-23T01:44:11.175Z,5.69
2022-09-23T01:46:51.585Z,5.63
2022-09-23T01:49:23.988Z,5.59
2022-09-23T01:51:59.920Z,5.72
2022-09-23T01:54:38.793Z,5.69
2022-09-23T01:57:15.088Z,5.69
2022-09-23T01:59:48.008Z,5.74
2022-09-23T02:02:17.204Z,5.59
2022-09-23T02:04:56.893Z,5.73
2022-09-23T02:07:40.036Z,5.57
2022-09-23T02:10:11.324Z,5.39
2022-09-23T02:12:40.775Z,5.34
2022-09-23T02:15:13.725Z,5.23
2022-09-23T02:17:54.068Z,5.05
2022-09-23T02:20:29.545Z,4.92
2022-09-23T02:22:59.671Z,4.99
2022-09-23T02:25:35.310Z,4.86
2022-09-23T02:28:12.141Z,4.72
2022-09-23T02:31:07.610Z,4.60
2022-09-23T02:33:45.660Z,4.64
2022-09-23T02:36:32.981Z,4.46
2022-09-23T02:39:05.087Z,4.24
2022-09-23T02:42:06.073Z,4.27
2022-09-23T02:44:32.908Z,4.23
2022-09-23T02:46:59.761Z,4.22
2022-09-23T02:49:30.776Z,4.15
2022-09-23T02:52:01.073Z,4.21
2022-09-23T02:54:28.951Z,4.20
2022-09-23T02:56:55.376Z,4.07
2022-09-23T02:59:23.549Z,4.27
2022-09-23T03:02:08.883Z,4.33
2022-09-23T03:04:35.430Z,4.31
2022-09-23T03:07:47.480Z,4.26
2022-09-23T03:10:35.028Z,4.24
2022-09-23T03:13:29.848Z,4.26
2022-09-23T03:16:07.165Z,4.30
2022-09-23T03:18:51.549Z,4.24
2022-09-23T03:21:28.737Z,4.29
2022-09-23T03:24:00.585Z,4.25
2022-09-23T03:26:36.656Z,4.26
2022-09-23T03:29:09.240Z,4.27
2022-09-23T03:31:39.657Z,4.46
2022-09-23T03:34:14.124Z,4.22
2022-09-23T03:36:53.636Z,4.06
2022-09-23T03:39:58.450Z,4.09
2022-09-23T03:42:29.999Z,4.13
2022-09-23T03:44:57.474Z,4.06
2022-09-23T03:47:28.403Z,4.05
2022-09-23T03:49:56.440Z,4.37
2022-09-23T03:52:24.507Z,4.29
2022-09-23T03:54:51.989Z,4.05
2022-09-23T03:57:20.105Z,3.94
2022-09-23T03:59:46.518Z,3.97
2022-09-23T04:02:13.051Z,3.86
2022-09-23T04:04:41.000Z,3.79
2022-09-23T04:07:07.434Z,3.79
2022-09-23T04:09:35.106Z,3.71
2022-09-23T04:12:01.868Z,3.78
2022-09-23T04:14:28.285Z,3.93
2022-09-23T04:16:54.969Z,3.60
2022-09-23T04:19:21.526Z,3.58
2022-09-23T04:21:48.450Z,3.68
2022-09-23T04:24:15.996Z,3.87
2022-09-23T04:26:43.007Z,4.12
2022-09-23T04:29:10.511Z,3.97
2022-09-23T04:31:37.065Z,4.08
2022-09-23T04:34:03.639Z,4.03
2022-09-23T04:36:30.327Z,3.94
2022-09-23T04:38:56.753Z,3.83
2022-09-23T04:41:23.352Z,3.82
2022-09-23T04:43:49.780Z,4.09
2022-09-23T04:46:16.537Z,4.01
2022-09-23T04:48:43.249Z,4.00
2022-09-23T04:51:15.086Z,4.01
2022-09-23T04:53:43.636Z,3.83
2022-09-23T04:56:13.504Z,3.71
2022-09-23T04:58:40.536Z,3.70
2022-09-23T05:01:14.561Z,3.75
2022-09-23T05:03:42.790Z,3.78
2022-09-23T05:06:10.997Z,3.86
2022-09-23T05:08:37.437Z,3.97
2022-09-23T05:11:05.309Z,4.05
2022-09-23T05:13:32.570Z,4.11
2022-09-23T05:16:04.384Z,4.25
2022-09-23T05:18:32.541Z,4.33
2022-09-23T05:20:59.149Z,4.58
2022-09-23T05:23:27.094Z,4.62
2022-09-23T05:26:02.193Z,4.63
2022-09-23T05:28:32.692Z,4.80
2022-09-23T05:31:20.722Z,4.80
2022-09-23T05:33:51.905Z,4.88
2022-09-23T05:36:20.467Z,4.96
2022-09-23T05:38:49.084Z,4.98
2022-09-23T05:41:16.072Z,5.05
2022-09-23T05:43:42.932Z,5.23
2022-09-23T05:46:35.837Z,5.44
2022-09-23T05:49:04.151Z,5.57
2022-09-23T05:51:32.485Z,5.72
2022-09-23T05:54:00.390Z,5.88
2022-09-23T05:56:28.081Z,5.95
2022-09-23T05:58:57.439Z,6.09
2022-09-23T06:01:26.249Z,6.28
2022-09-23T06:03:56.846Z,6.40
2022-09-23T06:06:28.701Z,6.53
2022-09-23T06:08:55.181Z,6.62
2022-09-23T06:11:21.668Z,6.80
2022-09-23T06:13:49.241Z,6.91
2022-09-23T06:16:16.488Z,7.01
2022-09-23T06:18:45.115Z,7.16
2022-09-23T06:21:16.476Z,7.27
2022-09-23T06:23:43.952Z,7.37
2022-09-23T06:26:12.969Z,7.46
2022-09-23T06:28:41.276Z,7.47
2022-09-23T06:31:14.107Z,7.48
2022-09-23T06:33:45.092Z,7.55
2022-09-23T06:36:18.039Z,7.66
2022-09-23T06:38:50.997Z,7.75
2022-09-23T06:41:17.737Z,7.90
2022-09-23T06:43:44.186Z,7.96
2022-09-23T06:46:15.552Z,8.07
2022-09-23T06:48:46.455Z,8.22
2022-09-23T06:51:19.397Z,8.34
2022-09-23T06:53:47.772Z,8.47
2022-09-23T06:56:14.842Z,8.63
2022-09-23T06:58:41.363Z,8.80
2022-09-23T07:01:10.113Z,8.95
2022-09-23T07:03:37.081Z,9.01
2022-09-23T07:06:04.769Z,9.11
2022-09-23T07:08:33.636Z,9.26
2022-09-23T07:11:03.259Z,9.41
2022-09-23T07:13:30.743Z,9.53
2022-09-23T07:15:58.824Z,9.64
2022-09-23T07:18:26.293Z,9.83
2022-09-23T07:20:53.731Z,9.95
2022-09-23T07:23:20.693Z,10.00
2022-09-23T07:25:50.143Z,10.13
2022-09-23T07:28:16.575Z,10.19
2022-09-23T07:30:55.873Z,10.24
2022-09-23T07:33:32.154Z,10.32
2022-09-23T07:35:59.020Z,10.37
2022-09-23T07:38:29.741Z,10.40
2022-09-23T07:41:08.771Z,10.49
2022-09-23T07:43:35.620Z,10.55
2022-09-23T07:46:06.973Z,10.59
2022-09-23T07:48:34.936Z,10.69
2022-09-23T07:51:07.493Z,10.77
2022-09-23T07:53:34.074Z,10.82
2022-09-23T07:56:00.618Z,10.85
2022-09-23T07:58:27.034Z,10.96
2022-09-23T08:00:53.579Z,11.05
2022-09-23T08:03:20.817Z,11.16
2022-09-23T08:05:47.242Z,11.06
2022-09-23T08:08:14.070Z,11.06
2022-09-23T08:10:40.485Z,11.17
2022-09-23T08:13:06.926Z,11.18
2022-09-23T08:15:33.559Z,11.33
2022-09-23T08:18:00.393Z,11.41
2022-09-23T08:20:47.680Z,11.51
2022-09-23T08:23:16.111Z,11.53
2022-09-23T08:25:46.813Z,11.59
2022-09-23T08:28:16.604Z,11.67
2022-09-23T08:30:44.303Z,11.73
2022-09-23T08:33:12.033Z,11.79
2022-09-23T08:35:38.460Z,11.84
2022-09-23T08:38:05.311Z,11.93
2022-09-23T08:40:39.208Z,12.00
2022-09-23T08:43:07.182Z,12.12
2022-09-23T08:45:36.020Z,12.22
2022-09-23T08:48:13.028Z,12.27
2022-09-23T08:50:54.773Z,12.38
2022-09-23T08:53:32.124Z,12.52
2022-09-23T08:56:02.743Z,12.56
2022-09-23T08:58:47.617Z,12.65
2022-09-23T09:01:34.600Z,12.66
2022-09-23T09:04:04.239Z,12.84
2022-09-23T09:06:52.517Z,13.00
2022-09-23T09:09:24.971Z,13.00
2022-09-23T09:11:58.050Z,13.14
2022-09-23T09:14:26.692Z,13.20
2022-09-23T09:17:00.437Z,13.31
2022-09-23T09:19:52.077Z,13.45
2022-09-23T09:22:44.656Z,13.52
2022-09-23T09:25:44.588Z,13.67
2022-09-23T09:28:42.290Z,13.70
2022-09-23T09:31:11.972Z,13.79
2022-09-23T09:33:57.893Z,13.84
2022-09-23T09:36:50.227Z,13.87
2022-09-23T09:39:17.246Z,13.88
2022-09-23T09:41:48.528Z,13.82
2022-09-23T09:44:37.190Z,13.89
2022-09-23T09:47:16.798Z,13.99
2022-09-23T09:49:53.869Z,14.15
2022-09-23T09:52:29.502Z,14.23
2022-09-23T09:55:22.450Z,14.37
2022-09-23T09:58:01.549Z,14.49
2022-09-23T10:00:27.981Z,14.56
2022-09-23T10:03:03.773Z,14.65
2022-09-23T10:05:33.006Z,14.68
2022-09-23T10:08:18.168Z,14.70
2022-09-23T10:11:12.919Z,14.66
2022-09-23T10:13:39.873Z,14.75
2022-09-23T10:16:06.590Z,14.88
2022-09-23T10:18:38.626Z,14.98
2022-09-23T10:21:15.673Z,15.03
2022-09-23T10:23:57.940Z,15.14
2022-09-23T10:26:32.185Z,15.20
2022-09-23T10:29:02.419Z,15.26
2022-09-23T10:31:34.057Z,15.37
2022-09-23T10:34:20.700Z,15.41
2022-09-23T10:36:55.599Z,15.31
2022-09-23T10:39:40.657Z,15.35
2022-09-23T10:42:45.274Z,15.50
2022-09-23T10:45:43.283Z,15.48
2022-09-23T10:48:19.385Z,15.56
2022-09-23T10:50:52.205Z,15.61
2022-09-23T10:53:30.080Z,15.67
2022-09-23T10:56:14.828Z,15.76
2022-09-23T10:59:03.695Z,15.79
2022-09-23T11:01:48.827Z,15.84
2022-09-23T11:04:25.799Z,15.87
2022-09-23T11:07:18.073Z,15.93
2022-09-23T11:10:11.361Z,15.99
2022-09-23T11:12:54.077Z,16.08
2022-09-23T11:15:44.126Z,15.94
2022-09-23T11:18:41.722Z,15.91
2022-09-23T11:21:37.008Z,15.99
2022-09-23T11:24:22.864Z,16.16
2022-09-23T11:27:07.350Z,16.25
2022-09-23T11:29:56.349Z,16.44
2022-09-23T11:32:22.690Z,16.38
2022-09-23T11:35:19.315Z,16.42
2022-09-23T11:37:53.259Z,16.53
2022-09-23T11:40:29.488Z,16.55
2022-09-23T11:43:04.197Z,16.28
2022-09-23T11:45:35.596Z,16.32
2022-09-23T11:48:21.721Z,16.36
2022-09-23T11:50:56.957Z,16.52
2022-09-23T11:53:44.852Z,16.48
2022-09-23T11:56:34.809Z,16.42
2022-09-23T11:59:39.456Z,16.39
2022-09-23T12:02:29.652Z,16.50
2022-09-23T12:05:10.801Z,16.59
2022-09-23T12:07:56.497Z,16.36
2022-09-23T12:10:36.630Z,16.67
2022-09-23T12:13:32.700Z,16.77
2022-09-23T12:16:25.629Z,16.93
2022-09-23T12:19:42.750Z,17.06
2022-09-23T12:22:40.288Z,17.05
2022-09-23T12:25:45.836Z,17.14
2022-09-23T12:28:24.465Z,17.00
2022-09-23T12:30:55.146Z,17.13
2022-09-23T12:33:26.406Z,17.37
2022-09-23T12:35:55.021Z,17.06
2022-09-23T12:38:25.600Z,17.05
2022-09-23T12:40:55.784Z,17.22
2022-09-23T12:43:30.928Z,17.29
2022-09-23T12:46:29.845Z,17.45
2022-09-23T12:48:57.774Z,17.57
2022-09-23T12:51:35.260Z,17.54
2022-09-23T12:54:04.355Z,17.56
2022-09-23T12:56:33.927Z,17.58
2022-09-23T12:59:12.922Z,17.64
2022-09-23T13:01:39.699Z,17.84
2022-09-23T13:04:24.758Z,18.00
2022-09-23T13:06:58.733Z,18.03
2022-09-23T13:09:29.413Z,17.93
2022-09-23T13:12:06.199Z,18.00
2022-09-23T13:14:34.369Z,18.07
2022-09-23T13:17:01.067Z,18.16
2022-09-23T13:19:35.390Z,18.13
2022-09-23T13:22:11.678Z,18.02
2022-09-23T13:24:42.477Z,18.20
2022-09-23T13:27:20.262Z,18.19
2022-09-23T13:30:14.092Z,18.19
2022-09-23T13:32:51.146Z,18.48
2022-09-23T13:35:34.316Z,18.62
2022-09-23T13:38:10.622Z,18.94
2022-09-23T13:40:38.651Z,19.01
2022-09-23T13:43:09.513Z,19.40
2022-09-23T13:45:42.911Z,19.61
2022-09-23T13:48:15.343Z,19.70
2022-09-23T13:50:51.085Z,19.83
2022-09-23T13:53:25.406Z,19.98
2022-09-23T13:56:14.312Z,19.97
2022-09-23T13:58:41.364Z,19.57
2022-09-23T14:01:22.379Z,20.12
2022-09-23T14:03:48.968Z,20.57
2022-09-23T14:06:16.251Z,20.49
2022-09-23T14:08:49.712Z,20.27
2022-09-23T14:11:18.341Z,19.86
2022-09-23T14:13:47.095Z,20.02
2022-09-23T14:16:15.310Z,19.75
2022-09-23T14:18:47.465Z,19.60
2022-09-23T14:21:35.142Z,19.31
2022-09-23T14:24:21.782Z,18.96
2022-09-23T14:27:01.513Z,19.02
2022-09-23T14:29:33.757Z,18.96
2022-09-23T14:32:23.886Z,19.01
2022-09-23T14:35:06.524Z,18.70
2022-09-23T14:37:57.514Z,18.61
2022-09-23T14:40:32.911Z,18.63
2022-09-23T14:43:02.265Z,18.71
2022-09-23T14:45:34.580Z,18.67
2022-09-23T14:48:14.317Z,18.70
2022-09-23T14:50:48.305Z,18.51
2022-09-23T14:53:22.317Z,18.54
2022-09-23T14:55:52.781Z,18.65
2022-09-23T14:58:22.976Z,18.70
2022-09-23T15:01:00.607Z,18.33
2022-09-23T15:03:28.585Z,18.42
2022-09-23T15:06:08.338Z,18.58
2022-09-23T15:08:35.683Z,18.49
2022-09-23T15:11:08.067Z,18.52
2022-09-23T15:13:41.421Z,18.36
2022-09-23T15:16:08.195Z,18.10
2022-09-23T15:18:36.686Z,18.07
2022-09-23T15:21:10.061Z,17.89
2022-09-23T15:23:45.200Z,17.65
2022-09-23T15:26:18.408Z,17.75
2022-09-23T15:28:46.183Z,17.83
2022-09-23T15:31:18.411Z,17.48
2022-09-23T15:33:49.179Z,17.59
2022-09-23T15:36:20.579Z,17.35
2022-09-23T15:38:47.739Z,17.22
2022-09-23T15:41:14.882Z,17.14
2022-09-23T15:43:41.876Z,17.22
2022-09-23T15:46:17.951Z,17.25
2022-09-23T15:48:58.450Z,17.32
2022-09-23T15:51:26.824Z,17.28
2022-09-23T15:53:55.085Z,17.24
2022-09-23T15:56:22.672Z,17.28
2022-09-23T15:58:49.657Z,16.99
2022-09-23T16:01:34.240Z,16.92
2022-09-23T16:04:02.361Z,16.86
2022-09-23T16:06:28.755Z,16.86
2022-09-23T16:08:55.618Z,16.86
2022-09-23T16:11:29.210Z,16.80
2022-09-23T16:13:55.589Z,16.81
2022-09-23T16:16:22.121Z,16.68
2022-09-23T16:18:51.101Z,16.65
2022-09-23T16:21:26.285Z,16.57
2022-09-23T16:23:54.385Z,16.43
2022-09-23T16:26:27.294Z,16.24
2022-09-23T16:28:56.852Z,16.22
2022-09-23T16:31:29.507Z,15.54
2022-09-23T16:33:56.453Z,15.54
2022-09-23T16:36:30.970Z,15.33
2022-09-23T16:38:59.058Z,15.08
2022-09-23T16:41:29.051Z,15.06
2022-09-23T16:43:56.212Z,14.78
2022-09-23T16:46:23.891Z,14.47
2022-09-23T16:48:52.902Z,14.15
2022-09-23T16:51:22.117Z,13.85
2022-09-23T16:53:49.989Z,13.71
2022-09-23T16:56:18.108Z,13.75
2022-09-23T16:58:44.749Z,13.58
2022-09-23T17:01:34.750Z,13.48
2022-09-23T17:04:01.482Z,13.60
2022-09-23T17:06:27.908Z,13.63
2022-09-23T17:08:54.424Z,13.30
2022-09-23T17:11:21.502Z,13.19
2022-09-23T17:13:49.188Z,13.14
2022-09-23T17:16:35.112Z,12.95
2022-09-23T17:19:09.622Z,12.49
2022-09-23T17:21:36.598Z,12.32
2022-09-23T17:24:03.721Z,12.35
2022-09-23T17:26:30.229Z,12.23
2022-09-23T17:28:58.681Z,12.03
2022-09-23T17:31:25.893Z,11.90
2022-09-23T17:33:52.827Z,11.88
2022-09-23T17:36:20.081Z,11.77
2022-09-23T17:38:48.201Z,11.65
2022-09-23T17:41:15.313Z,11.49
2022-09-23T17:43:41.932Z,11.47
2022-09-23T17:46:17.950Z,11.34
2022-09-23T17:48:45.094Z,11.18
2022-09-23T17:51:16.039Z,10.92
2022-09-23T17:53:45.270Z,10.79
2022-09-23T17:56:22.606Z,10.83
2022-09-23T17:58:49.601Z,10.89
2022-09-23T18:01:19.960Z,10.93
2022-09-23T18:03:47.253Z,10.83
2022-09-23T18:06:15.676Z,10.77
2022-09-23T18:08:44.341Z,10.84
2022-09-23T18:11:13.006Z,10.79
2022-09-23T18:13:39.504Z,10.86
2022-09-23T18:16:07.215Z,10.95
2022-09-23T18:18:33.720Z,11.08
2022-09-23T18:21:04.910Z,11.27
2022-09-23T18:23:31.337Z,11.45
2022-09-23T18:25:57.761Z,11.49
2022-09-23T18:28:24.237Z,11.48
2022-09-23T18:30:55.241Z,11.25
2022-09-23T18:33:22.575Z,11.14
2022-09-23T18:35:49.957Z,11.26
2022-09-23T18:38:16.469Z,11.52
2022-09-23T18:40:50.753Z,11.52
2022-09-23T18:43:19.698Z,11.41
2022-09-23T18:45:55.314Z,11.28
2022-09-23T18:48:40.237Z,11.24
2022-09-23T18:51:08.585Z,11.37
2022-09-23T18:53:35.797Z,11.33
2022-09-23T18:56:13.764Z,11.28
2022-09-23T18:58:45.341Z,11.29
2022-09-23T19:01:12.538Z,11.20
2022-09-23T19:03:39.525Z,11.40
2022-09-23T19:06:21.175Z,11.51
2022-09-23T19:08:50.043Z,11.50
2022-09-23T19:11:16.696Z,11.22
2022-09-23T19:13:43.152Z,11.19
2022-09-23T19:16:15.258Z,11.39
2022-09-23T19:18:46.234Z,11.37
2022-09-23T19:21:14.317Z,11.35
2022-09-23T19:23:46.948Z,11.37
2022-09-23T19:26:16.297Z,11.34
2022-09-23T19:28:50.807Z,11.22
2022-09-23T19:31:25.756Z,11.16
2022-09-23T19:33:56.228Z,11.27
2022-09-23T19:36:24.900Z,11.49
2022-09-23T19:39:00.281Z,11.13
2022-09-23T19:41:31.674Z,10.88
2022-09-23T19:44:02.226Z,10.79
2022-09-23T19:46:30.941Z,10.73
2022-09-23T19:48:58.132Z,10.67
2022-09-23T19:51:24.682Z,10.56
2022-09-23T19:53:51.449Z,10.45
2022-09-23T19:56:18.156Z,10.39
2022-09-23T19:58:51.046Z,10.38
2022-09-23T20:01:18.743Z,10.36
2022-09-23T20:03:46.840Z,10.39
2022-09-23T20:06:14.569Z,10.36
2022-09-23T20:08:42.008Z,10.31
2022-09-23T20:11:13.085Z,10.27
2022-09-23T20:13:40.959Z,10.22
2022-09-23T20:16:12.093Z,10.21
2022-09-23T20:18:38.876Z,10.17
2022-09-23T20:21:06.487Z,10.13
2022-09-23T20:23:33.617Z,10.10
2022-09-23T20:26:20.257Z,10.06
2022-09-23T20:28:47.117Z,10.05
2022-09-23T20:31:14.782Z,10.18
2022-09-23T20:33:41.592Z,10.25
2022-09-23T20:36:09.160Z,10.27
2022-09-23T20:38:36.550Z,10.32
2022-09-23T20:41:03.392Z,10.43
2022-09-23T20:43:32.194Z,10.44
2022-09-23T20:45:58.597Z,10.36
2022-09-23T20:48:25.449Z,10.22
2022-09-23T20:50:51.859Z,10.20
2022-09-23T20:53:19.008Z,9.93
2022-09-23T20:55:52.917Z,9.78
2022-09-23T20:58:23.891Z,9.59
2022-09-23T21:00:50.938Z,9.57
2022-09-23T21:03:18.545Z,9.69
2022-09-23T21:05:45.497Z,9.78
2022-09-23T21:08:12.465Z,9.82
2022-09-23T21:10:38.917Z,9.79
2022-09-23T21:13:06.927Z,9.83
2022-09-23T21:15:36.246Z,9.73
2022-09-23T21:18:02.643Z,9.80
2022-09-23T21:20:29.040Z,9.79
2022-09-23T21:22:57.096Z,9.83
2022-09-23T21:25:28.419Z,9.78
2022-09-23T21:27:55.673Z,9.94
2022-09-23T21:30:22.873Z,10.06
2022-09-23T21:32:49.320Z,9.95
2022-09-23T21:35:16.053Z,9.96
2022-09-23T21:37:42.436Z,9.96
2022-09-23T21:40:28.268Z,10.09
2022-09-23T21:42:59.139Z,10.05
2022-09-23T21:45:26.552Z,9.97
2022-09-23T21:47:53.869Z,9.91
2022-09-23T21:50:20.463Z,9.80
2022-09-23T21:52:48.163Z,9.76
2022-09-23T21:55:14.609Z,9.71
2022-09-23T21:57:41.042Z,9.76
2022-09-23T22:00:09.124Z,9.84
2022-09-23T22:02:39.707Z,9.82
2022-09-23T22:05:07.165Z,9.87
2022-09-23T22:07:37.049Z,9.86
2022-09-23T22:10:05.851Z,9.89
2022-09-23T22:12:33.425Z,10.01
2022-09-23T22:14:59.960Z,10.06
2022-09-23T22:17:26.422Z,10.15
2022-09-23T22:19:52.819Z,10.19
2022-09-23T22:22:19.476Z,10.21
2022-09-23T22:24:46.784Z,10.23
2022-09-23T22:27:16.356Z,10.30
2022-09-23T22:30:01.450Z,10.21
2022-09-23T22:32:40.400Z,10.18
2022-09-23T22:35:17.713Z,10.07
2022-09-23T22:37:44.832Z,10.00
2022-09-23T22:40:16.794Z,10.15
2022-09-23T22:42:43.718Z,10.16
2022-09-23T22:45:11.481Z,10.07
2022-09-23T22:47:39.685Z,9.98
2022-09-23T22:50:08.756Z,10.00
2022-09-23T22:52:36.100Z,10.10
2022-09-23T22:55:03.631Z,10.04
2022-09-23T22:57:31.124Z,9.97
2022-09-23T22:59:57.521Z,9.95
2022-09-23T23:02:24.017Z,9.95
2022-09-23T23:04:50.876Z,9.91
2022-09-23T23:07:21.031Z,9.93
2022-09-23T23:09:49.860Z,10.02
2022-09-23T23:12:16.824Z,10.13
2022-09-23T23:14:43.292Z,9.99
2022-09-23T23:17:09.783Z,9.92
2022-09-23T23:19:37.061Z,9.90
2022-09-23T23:22:05.006Z,9.88
2022-09-23T23:24:32.321Z,9.85
2022-09-23T23:26:58.833Z,9.88
2022-09-23T23:29:25.200Z,9.80
2022-09-23T23:31:51.817Z,9.80
2022-09-23T23:34:21.737Z,9.60
2022-09-23T23:36:54.623Z,9.40
2022-09-23T23:39:23.687Z,9.32
2022-09-23T23:41:57.954Z,9.34
2022-09-23T23:44:26.486Z,9.39
2022-09-23T23:46:54.117Z,9.44
2022-09-23T23:49:21.403Z,9.49
2022-09-23T23:51:47.984Z,9.60
2022-09-23T23:54:15.159Z,9.67
2022-09-23T23:56:41.781Z,9.74
2022-09-23T23:59:08.219Z,9.79
